createdAt,value
2022-11-05T00:04:45.488Z,32.03
2022-11-05T00:09:48.534Z,29.53
2022-11-05T00:15:09.927Z,31.57
2022-11-05T00:20:13.750Z,33.17
2022-11-05T00:25:17.106Z,33.07
2022-11-05T00:30:22.985Z,31.70
2022-11-05T00:35:25.446Z,31.53
2022-11-05T00:40:27.942Z,31.00
2022-11-05T00:45:31.565Z,30.83
2022-11-05T00:50:34.433Z,29.80
2022-11-05T00:55:39.854Z,28.03
2022-11-05T01:00:44.793Z,27.20
2022-11-05T01:05:53.045Z,26.80
2022-11-05T01:11:01.045Z,25.23
2022-11-05T01:16:10.635Z,25.57
2022-11-05T01:21:15.852Z,23.07
2022-11-05T01:26:18.272Z,22.97
2022-11-05T01:31:21.408Z,22.73
2022-11-05T01:36:23.804Z,24.00
2022-11-05T01:41:26.234Z,22.63
2022-11-05T01:46:38.571Z,20.43
2022-11-05T01:51:43.282Z,19.90
2022-11-05T01:56:54.726Z,19.17
2022-11-05T02:01:57.402Z,18.13
2022-11-05T02:07:00.269Z,18.70
2022-11-05T02:12:02.850Z,17.43
2022-11-05T02:17:33.557Z,17.33
2022-11-05T02:22:41.713Z,17.93
2022-11-05T02:28:01.088Z,18.30
2022-11-05T02:33:43.852Z,17.27
2022-11-05T02:39:14.699Z,16.80
2022-11-05T02:44:40.068Z,17.27
2022-11-05T02:49:53.996Z,15.77
2022-11-05T02:55:21.964Z,16.53
2022-11-05T03:00:50.148Z,15.93
2022-11-05T03:06:08.708Z,15.27
2022-11-05T03:11:16.041Z,16.00
2022-11-05T03:16:32.721Z,14.53
2022-11-05T03:21:44.075Z,14.77
2022-11-05T03:26:58.513Z,14.43
2022-11-05T03:32:03.773Z,14.80
2022-11-05T03:37:07.897Z,14.73
2022-11-05T03:42:15.387Z,13.40
2022-11-05T03:47:22.681Z,12.00
2022-11-05T03:52:30.093Z,10.57
2022-11-05T03:57:37.149Z,9.90
2022-11-05T04:02:39.653Z,8.73
2022-11-05T04:08:02.779Z,8.43
2022-11-05T04:13:23.642Z,8.00
2022-11-05T04:18:26.082Z,8.43
2022-11-05T04:23:46.759Z,8.47
2022-11-05T04:29:09.181Z,8.83
2022-11-05T04:34:11.584Z,8.07
2022-11-05T04:39:14.049Z,7.67
2022-11-05T04:44:16.948Z,7.73
2022-11-05T04:49:19.400Z,7.77
2022-11-05T04:54:21.878Z,7.50
2022-11-05T04:59:24.213Z,6.77
2022-11-05T05:04:26.668Z,5.87
2022-11-05T05:09:29.108Z,6.30
2022-11-05T05:14:31.598Z,6.67
2022-11-05T05:19:54.023Z,6.70
2022-11-05T05:24:56.831Z,7.13
2022-11-05T05:29:59.709Z,6.13
2022-11-05T05:35:02.096Z,5.80
2022-11-05T05:40:04.847Z,5.20
2022-11-05T05:45:07.509Z,4.67
2022-11-05T05:50:09.859Z,4.67
2022-11-05T05:55:12.771Z,4.60
2022-11-05T06:00:15.365Z,4.73
2022-11-05T06:05:17.980Z,5.00
2022-11-05T06:10:20.401Z,5.13
2022-11-05T06:15:23.288Z,5.00
2022-11-05T06:20:25.728Z,4.70
2022-11-05T06:25:28.220Z,5.30
2022-11-05T06:30:31.033Z,5.20
2022-11-05T06:35:33.590Z,4.57
2022-11-05T06:40:35.976Z,5.17
2022-11-05T06:45:38.386Z,4.17
2022-11-05T06:50:44.653Z,3.97
2022-11-05T06:55:49.742Z,4.73
2022-11-05T07:00:52.224Z,4.47
2022-11-05T07:05:55.008Z,4.80
2022-11-05T07:10:57.329Z,4.63
2022-11-05T07:15:59.814Z,4.07
2022-11-05T07:21:02.257Z,4.83
2022-11-05T07:26:05.008Z,4.67
2022-11-05T07:31:07.437Z,4.70
2022-11-05T07:36:10.071Z,4.17
2022-11-05T07:41:12.413Z,4.70
2022-11-05T07:46:14.839Z,4.73
2022-11-05T07:51:17.305Z,4.40
2022-11-05T07:56:19.669Z,6.40
2022-11-05T08:01:22.276Z,5.13
2022-11-05T08:06:24.811Z,5.17
2022-11-05T08:11:27.194Z,5.77
2022-11-05T08:16:29.663Z,5.60
2022-11-05T08:21:32.238Z,7.03
2022-11-05T08:26:34.951Z,5.77
2022-11-05T08:31:37.341Z,6.23
2022-11-05T08:36:43.234Z,6.20
2022-11-05T08:41:47.173Z,6.10
2022-11-05T08:46:49.607Z,5.93
2022-11-05T08:51:52.018Z,5.80
2022-11-05T08:56:54.437Z,6.37
2022-11-05T09:01:57.031Z,7.57
2022-11-05T09:06:59.542Z,6.33
2022-11-05T09:12:17.148Z,8.60
2022-11-05T09:17:21.597Z,7.93
2022-11-05T09:22:24.037Z,7.57
2022-11-05T09:27:26.660Z,7.60
2022-11-05T09:32:34.002Z,7.47
2022-11-05T09:37:39.894Z,8.80
2022-11-05T09:42:50.247Z,7.47
2022-11-05T09:48:10.063Z,19.27
2022-11-05T09:53:18.255Z,103.13
2022-11-05T09:58:43.727Z,79.57
2022-11-05T10:03:50.175Z,64.60
2022-11-05T10:09:11.929Z,41.87
2022-11-05T10:14:23.099Z,15.27
2022-11-05T10:19:48.039Z,9.10
2022-11-05T10:24:52.068Z,8.80
2022-11-05T10:29:54.601Z,7.47
2022-11-05T10:35:00.519Z,6.67
2022-11-05T10:40:06.100Z,6.87
2022-11-05T10:45:11.487Z,6.03
2022-11-05T10:50:19.263Z,5.10
2022-11-05T10:55:35.267Z,5.83
2022-11-05T11:00:38.069Z,4.40
2022-11-05T11:05:40.975Z,5.30
2022-11-05T11:10:53.241Z,5.27
2022-11-05T11:16:19.687Z,14.23
2022-11-05T11:21:26.955Z,5.07
2022-11-05T11:26:36.095Z,5.27
2022-11-05T11:31:39.981Z,10.70
2022-11-05T11:36:48.917Z,26.43
2022-11-05T11:41:54.964Z,42.33
2022-11-05T11:47:02.096Z,23.37
2022-11-05T11:52:11.514Z,27.40
2022-11-05T11:57:29.819Z,41.47
2022-11-05T12:02:47.544Z,13.37
2022-11-05T12:07:58.135Z,15.57
2022-11-05T12:13:18.851Z,16.40
2022-11-05T12:18:45.968Z,10.80
2022-11-05T12:24:04.184Z,39.73
2022-11-05T12:29:25.351Z,11.33
2022-11-05T12:34:39.630Z,16.97
2022-11-05T12:39:51.244Z,19.13
2022-11-05T12:44:57.834Z,26.27
2022-11-05T12:50:15.322Z,42.00
2022-11-05T12:55:24.035Z,17.80
2022-11-05T13:00:29.173Z,23.87
2022-11-05T13:05:43.936Z,88.97
2022-11-05T13:10:55.103Z,16.90
2022-11-05T13:16:04.608Z,25.83
2022-11-05T13:21:10.589Z,28.00
2022-11-05T13:26:34.101Z,22.57
2022-11-05T13:31:45.514Z,38.23
2022-11-05T13:37:22.628Z,12.40
2022-11-05T13:42:52.909Z,6.70
2022-11-05T13:48:32.516Z,7.90
2022-11-05T13:53:34.901Z,11.87
2022-11-05T13:59:01.886Z,8.10
2022-11-05T14:04:04.923Z,11.93
2022-11-05T14:09:12.175Z,20.33
2022-11-05T14:14:44.444Z,20.93
2022-11-05T14:20:01.709Z,12.13
2022-11-05T14:25:19.383Z,13.30
2022-11-05T14:30:41.225Z,17.87
2022-11-05T14:35:43.975Z,13.33
2022-11-05T14:40:47.082Z,15.60
2022-11-05T14:46:19.079Z,22.23
2022-11-05T14:51:34.040Z,116.30
2022-11-05T14:56:54.879Z,65.17
2022-11-05T15:02:11.896Z,69.90
2022-11-05T15:07:33.631Z,83.23
2022-11-05T15:12:44.847Z,63.90
2022-11-05T15:18:11.514Z,80.67
2022-11-05T15:23:20.572Z,37.63
2022-11-05T15:28:50.803Z,30.57
2022-11-05T15:34:17.371Z,30.67
2022-11-05T15:39:33.706Z,32.93
2022-11-05T15:44:42.640Z,26.47
2022-11-05T15:49:48.061Z,27.67
2022-11-05T15:55:13.362Z,28.43
2022-11-05T16:00:22.019Z,48.17
2022-11-05T16:05:26.886Z,42.23
2022-11-05T16:10:32.028Z,41.30
2022-11-05T16:15:34.487Z,41.40
2022-11-05T16:20:38.707Z,37.33
2022-11-05T16:25:45.736Z,41.33
2022-11-05T16:30:58.096Z,68.10
2022-11-05T16:36:00.744Z,93.13
2022-11-05T16:41:03.214Z,133.43
2022-11-05T16:46:05.697Z,125.50
2022-11-05T16:51:11.342Z,119.10
2022-11-05T16:56:18.724Z,115.10
2022-11-05T17:01:23.204Z,125.03
2022-11-05T17:06:25.652Z,116.23
2022-11-05T17:11:28.085Z,111.17
2022-11-05T17:16:30.577Z,111.00
2022-11-05T17:21:33.001Z,111.07
2022-11-05T17:26:35.682Z,113.70
2022-11-05T17:31:40.168Z,111.80
2022-11-05T17:36:42.607Z,117.20
2022-11-05T17:41:45.121Z,119.63
2022-11-05T17:46:47.566Z,133.60
2022-11-05T17:51:49.970Z,125.77
2022-11-05T17:56:52.313Z,123.67
2022-11-05T18:01:54.791Z,126.53
2022-11-05T18:06:57.201Z,114.43
2022-11-05T18:11:59.921Z,123.20
2022-11-05T18:17:02.378Z,133.97
2022-11-05T18:22:04.964Z,135.37
2022-11-05T18:27:07.381Z,145.13
2022-11-05T18:32:09.864Z,142.77
2022-11-05T18:37:12.416Z,128.53
2022-11-05T18:42:14.874Z,119.00
2022-11-05T18:47:17.517Z,118.23
2022-11-05T18:52:19.920Z,117.93
2022-11-05T18:57:22.406Z,117.10
2022-11-05T19:02:25.026Z,116.57
2022-11-05T19:07:27.812Z,112.27
2022-11-05T19:12:30.223Z,111.83
2022-11-05T19:17:34.242Z,113.77
2022-11-05T19:22:37.046Z,112.73
2022-11-05T19:27:39.849Z,114.90
2022-11-05T19:32:42.323Z,121.30
2022-11-05T19:37:45.121Z,134.57
2022-11-05T19:42:47.814Z,132.27
2022-11-05T19:47:50.277Z,165.07
2022-11-05T19:52:52.734Z,159.80
2022-11-05T19:57:55.192Z,157.13
2022-11-05T20:02:57.855Z,144.97
2022-11-05T20:08:00.295Z,161.17
2022-11-05T20:13:02.707Z,144.07
2022-11-05T20:18:06.726Z,137.87
2022-11-05T20:23:09.373Z,133.27
2022-11-05T20:28:11.965Z,132.93
2022-11-05T20:33:14.573Z,135.90
2022-11-05T20:38:17.601Z,128.43
2022-11-05T20:43:20.180Z,137.17
2022-11-05T20:48:22.579Z,125.33
2022-11-05T20:53:25.179Z,123.67
2022-11-05T20:58:27.792Z,115.77
2022-11-05T21:03:30.310Z,102.80
2022-11-05T21:08:33.664Z,96.20
2022-11-05T21:13:36.557Z,95.50
2022-11-05T21:18:40.133Z,88.57
2022-11-05T21:23:45.653Z,81.63
2022-11-05T21:28:48.060Z,65.03
2022-11-05T21:33:55.002Z,71.63
2022-11-05T21:38:57.750Z,62.43
2022-11-05T21:44:00.145Z,62.87
2022-11-05T21:49:02.692Z,63.13
2022-11-05T21:54:23.668Z,87.10
2022-11-05T21:59:44.474Z,94.70
2022-11-05T22:04:49.893Z,94.63
2022-11-05T22:09:52.340Z,85.23
2022-11-05T22:14:55.145Z,85.60
2022-11-05T22:19:57.694Z,70.03
2022-11-05T22:25:00.425Z,58.13
2022-11-05T22:30:02.973Z,53.17
2022-11-05T22:35:06.124Z,50.60
2022-11-05T22:40:09.751Z,51.87
2022-11-05T22:45:12.280Z,55.67
2022-11-05T22:50:14.799Z,59.63
2022-11-05T22:55:17.310Z,63.47
2022-11-05T23:00:19.767Z,71.53
2022-11-05T23:05:22.177Z,62.70
2022-11-05T23:10:43.201Z,70.87
2022-11-05T23:16:04.120Z,66.23
2022-11-05T23:21:25.143Z,61.13
2022-11-05T23:26:46.053Z,68.90
2022-11-05T23:32:07.330Z,63.13
2022-11-05T23:37:28.272Z,60.37
2022-11-05T23:42:49.235Z,60.47
2022-11-05T23:48:10.779Z,56.03
2022-11-05T23:53:13.836Z,66.73
2022-11-05T23:58:17.022Z,71.67
